sensor_id;sensor_type;location;lat;lon;timestamp;pressure;altitude;pressure_sealevel;temperature;humidity
62833;BME280;48891;49.220;6.920;2023-02-28T08:54:19;99847.72;;;13.76;47.44
62833;BME280;48891;49.220;6.920;2023-02-28T08:56:45;99853.00;;;13.76;47.52
62833;BME280;48891;49.220;6.920;2023-02-28T08:59:11;99841.09;;;13.67;47.28
62833;BME280;48891;49.220;6.920;2023-02-28T09:01:36;99854.09;;;13.72;47.14
62833;BME280;48891;49.220;6.920;2023-02-28T09:04:01;99851.44;;;13.72;46.99
62833;BME280;48891;49.220;6.920;2023-02-28T09:06:27;99853.25;;;13.71;46.97
62833;BME280;48891;49.220;6.920;2023-02-28T09:08:52;99849.63;;;13.72;46.85
62833;BME280;48891;49.220;6.920;2023-02-28T09:11:18;99848.72;;;13.73;46.84
62833;BME280;48891;49.220;6.920;2023-02-28T09:13:44;99795.69;;;13.40;46.99
62833;BME280;48891;49.220;6.920;2023-02-28T09:16:13;99846.97;;;13.72;46.89
62833;BME280;48891;49.220;6.920;2023-02-28T09:18:40;99850.44;;;13.74;46.87
62833;BME280;48891;49.220;6.920;2023-02-28T09:21:16;99851.34;;;13.73;46.75
62833;BME280;48891;49.220;6.920;2023-02-28T09:23:44;99847.84;;;13.73;46.83
62833;BME280;48891;49.220;6.920;2023-02-28T09:26:19;99852.28;;;13.72;46.84
62833;BME280;48891;49.220;6.920;2023-02-28T09:28:45;99844.44;;;13.71;46.89
62833;BME280;48891;49.220;6.920;2023-02-28T09:31:17;99848.00;;;13.70;47.07
62833;BME280;48891;49.220;6.920;2023-02-28T09:33:43;99844.44;;;13.71;46.84
62833;BME280;48891;49.220;6.920;2023-02-28T09:36:08;99822.25;;;13.56;46.92
62833;BME280;48891;49.220;6.920;2023-02-28T09:38:33;99844.44;;;13.71;46.76
62833;BME280;48891;49.220;6.920;2023-02-28T09:41:01;99844.44;;;13.71;47.03
62833;BME280;48891;49.220;6.920;2023-02-28T09:43:33;99859.47;;;13.70;47.11
62833;BME280;48891;49.220;6.920;2023-02-28T09:46:21;99840.22;;;13.66;47.19
62833;BME280;48891;49.220;6.920;2023-02-28T09:48:51;99844.34;;;13.72;47.39
62833;BME280;48891;49.220;6.920;2023-02-28T09:53:57;99850.44;;;13.74;47.39
62833;BME280;48891;49.220;6.920;2023-02-28T09:56:30;99853.00;;;13.76;47.71
62833;BME280;48891;49.220;6.920;2023-02-28T09:59:01;99854.69;;;13.77;47.76
62833;BME280;48891;49.220;6.920;2023-02-28T10:06:49;99851.13;;;13.78;48.00
62833;BME280;48891;49.220;6.920;2023-02-28T10:09:27;99842.22;;;13.79;48.12
62833;BME280;48891;49.220;6.920;2023-02-28T10:11:59;99842.28;;;13.77;48.26
62833;BME280;48891;49.220;6.920;2023-02-28T10:14:28;99846.69;;;13.78;48.46
62833;BME280;48891;49.220;6.920;2023-02-28T10:17:01;99848.28;;;13.81;48.51
62833;BME280;48891;49.220;6.920;2023-02-28T10:22:18;99848.06;;;13.85;47.86
62833;BME280;48891;49.220;6.920;2023-02-28T10:24:52;99820.47;;;13.72;48.57
62833;BME280;48891;49.220;6.920;2023-02-28T10:27:23;99844.47;;;13.86;48.58
62833;BME280;48891;49.220;6.920;2023-02-28T10:29:53;99837.38;;;13.87;48.71
62833;BME280;48891;49.220;6.920;2023-02-28T10:32:25;99836.53;;;13.86;48.55
62833;BME280;48891;49.220;6.920;2023-02-28T10:34:53;99842.69;;;13.87;49.00
62833;BME280;48891;49.220;6.920;2023-02-28T10:37:20;99838.91;;;13.91;48.81
62833;BME280;48891;49.220;6.920;2023-02-28T10:39:46;99837.22;;;13.90;48.66
62833;BME280;48891;49.220;6.920;2023-02-28T10:42:29;99830.13;;;13.91;48.59
62833;BME280;48891;49.220;6.920;2023-02-28T10:47:33;99840.56;;;13.94;48.90
62833;BME280;48891;49.220;6.920;2023-02-28T10:50:00;99837.72;;;13.97;49.03
62833;BME280;48891;49.220;6.920;2023-02-28T10:52:36;99834.22;;;13.96;48.98
62833;BME280;48891;49.220;6.920;2023-02-28T10:55:23;99838.59;;;13.97;48.95
62833;BME280;48891;49.220;6.920;2023-02-28T10:57:49;99836.78;;;13.98;49.03
62833;BME280;48891;49.220;6.920;2023-02-28T11:00:20;99836.88;;;13.96;48.81
62833;BME280;48891;49.220;6.920;2023-02-28T11:02:47;99825.66;;;13.91;48.94
62833;BME280;48891;49.220;6.920;2023-02-28T11:05:29;99840.38;;;13.97;48.86
62833;BME280;48891;49.220;6.920;2023-02-28T11:08:02;99847.56;;;13.95;48.78
62833;BME280;48891;49.220;6.920;2023-02-28T11:10:31;99802.53;;;13.77;48.95
62833;BME280;48891;49.220;6.920;2023-02-28T11:12:57;99799.22;;;13.74;48.89
62833;BME280;48891;49.220;6.920;2023-02-28T11:15:28;99837.22;;;13.90;48.74
62833;BME280;48891;49.220;6.920;2023-02-28T11:18:02;99827.38;;;13.92;48.81
62833;BME280;48891;49.220;6.920;2023-02-28T11:20:33;99834.16;;;13.98;48.67
62833;BME280;48891;49.220;6.920;2023-02-28T11:23:01;99824.31;;;14.00;48.71
62833;BME280;48891;49.220;6.920;2023-02-28T11:28:02;99824.22;;;14.01;48.82
62833;BME280;48891;49.220;6.920;2023-02-28T11:30:39;99824.16;;;14.03;48.77
62833;BME280;48891;49.220;6.920;2023-02-28T11:33:42;99823.13;;;14.05;48.33
62833;BME280;48891;49.220;6.920;2023-02-28T11:38:49;99832.72;;;14.08;48.10
62833;BME280;48891;49.220;6.920;2023-02-28T11:42:00;99828.41;;;14.05;48.66
62833;BME280;48891;49.220;6.920;2023-02-28T11:46:57;99817.03;;;14.03;48.65
62833;BME280;48891;49.220;6.920;2023-02-28T11:49:36;99819.63;;;14.05;48.64
62833;BME280;48891;49.220;6.920;2023-02-28T11:57:34;99820.81;;;13.99;48.44
62833;BME280;48891;49.220;6.920;2023-02-28T12:03:22;99827.03;;;13.98;48.30
62833;BME280;48891;49.220;6.920;2023-02-28T12:06:09;99819.28;;;13.95;48.35
62833;BME280;48891;49.220;6.920;2023-02-28T12:11:50;99822.00;;;13.94;48.35
62833;BME280;48891;49.220;6.920;2023-02-28T12:27:47;99757.66;;;13.58;48.22
62833;BME280;48891;49.220;6.920;2023-02-28T12:32:44;99803.75;;;13.88;48.44
62833;BME280;48891;49.220;6.920;2023-02-28T12:35:14;99772.97;;;13.69;48.20
62833;BME280;48891;49.220;6.920;2023-02-28T12:37:45;99794.28;;;13.83;48.49
62833;BME280;48891;49.220;6.920;2023-02-28T12:40:16;99794.38;;;13.82;48.90
62833;BME280;48891;49.220;6.920;2023-02-28T12:42:45;99802.38;;;13.80;48.85
62833;BME280;48891;49.220;6.920;2023-02-28T12:45:19;99801.47;;;13.81;48.84
62833;BME280;48891;49.220;6.920;2023-02-28T12:47:50;99718.22;;;13.36;49.05
62833;BME280;48891;49.220;6.920;2023-02-28T12:50:16;99792.91;;;13.76;48.84
62833;BME280;48891;49.220;6.920;2023-02-28T12:53:00;99804.34;;;13.77;48.87
62833;BME280;48891;49.220;6.920;2023-02-28T12:55:51;99760.31;;;13.58;48.80
62833;BME280;48891;49.220;6.920;2023-02-28T12:58:30;99779.28;;;13.66;48.97
62833;BME280;48891;49.220;6.920;2023-02-28T13:06:28;99781.63;;;13.73;48.98
62833;BME280;48891;49.220;6.920;2023-02-28T13:11:48;99775.53;;;13.71;48.96
62833;BME280;48891;49.220;6.920;2023-02-28T13:14:27;99780.03;;;13.68;48.87
62833;BME280;48891;49.220;6.920;2023-02-28T13:19:34;99781.84;;;13.68;49.08
62833;BME280;48891;49.220;6.920;2023-02-28T13:22:00;99777.50;;;13.67;48.88
62833;BME280;48891;49.220;6.920;2023-02-28T13:29:37;99784.41;;;13.70;48.82
62833;BME280;48891;49.220;6.920;2023-02-28T13:34:28;99779.97;;;13.70;48.67
62833;BME280;48891;49.220;6.920;2023-02-28T13:39:49;99734.28;;;13.49;48.20
62833;BME280;48891;49.220;6.920;2023-02-28T13:47:29;99746.03;;;13.61;48.25
62833;BME280;48891;49.220;6.920;2023-02-28T13:55:34;99774.88;;;13.83;48.10
62833;BME280;48891;49.220;6.920;2023-02-28T13:58:10;99767.69;;;13.85;47.99
62833;BME280;48891;49.220;6.920;2023-02-28T14:08:59;99777.53;;;13.83;47.97
62833;BME280;48891;49.220;6.920;2023-02-28T14:11:29;99769.59;;;13.83;47.79
62833;BME280;48891;49.220;6.920;2023-02-28T14:13:54;99741.25;;;13.67;47.93
62833;BME280;48891;49.220;6.920;2023-02-28T14:16:22;99765.03;;;13.85;47.72
62833;BME280;48891;49.220;6.920;2023-02-28T14:19:43;99770.34;;;13.85;47.74
62833;BME280;48891;49.220;6.920;2023-02-28T14:27:26;99768.53;;;13.85;47.65
62833;BME280;48891;49.220;6.920;2023-02-28T14:38:29;99763.41;;;13.98;47.25
62833;BME280;48891;49.220;6.920;2023-02-28T14:40:57;99777.34;;;14.02;47.30
62833;BME280;48891;49.220;6.920;2023-02-28T14:43:26;99770.16;;;14.04;47.24
62833;BME280;48891;49.220;6.920;2023-02-28T14:45:54;99760.75;;;13.98;47.16
62833;BME280;48891;49.220;6.920;2023-02-28T14:48:21;99763.78;;;14.08;46.94
62833;BME280;48891;49.220;6.920;2023-02-28T14:50:58;99759.16;;;14.12;46.80
62833;BME280;48891;49.220;6.920;2023-02-28T14:53:29;99760.97;;;14.11;46.78
62833;BME280;48891;49.220;6.920;2023-02-28T14:55:55;99767.97;;;14.12;46.90
62833;BME280;48891;49.220;6.920;2023-02-28T14:58:25;99765.38;;;14.11;46.77
62833;BME280;48891;49.220;6.920;2023-02-28T15:00:52;99761.81;;;14.12;46.77
62833;BME280;48891;49.220;6.920;2023-02-28T15:03:21;99771.47;;;14.13;46.75
62833;BME280;48891;49.220;6.920;2023-02-28T15:06:21;99768.66;;;14.16;46.59
62833;BME280;48891;49.220;6.920;2023-02-28T15:08:46;99771.22;;;14.17;46.47
62833;BME280;48891;49.220;6.920;2023-02-28T15:11:14;99764.97;;;14.18;46.64
62833;BME280;48891;49.220;6.920;2023-02-28T15:13:46;99761.53;;;14.16;46.30
62833;BME280;48891;49.220;6.920;2023-02-28T15:18:58;99770.16;;;14.20;46.56
62833;BME280;48891;49.220;6.920;2023-02-28T15:21:27;99769.00;;;14.26;45.96
62833;BME280;48891;49.220;6.920;2023-02-28T15:23:58;99771.38;;;14.30;45.99
62833;BME280;48891;49.220;6.920;2023-02-28T15:26:27;99717.34;;;14.01;45.81
62833;BME280;48891;49.220;6.920;2023-02-28T15:28:59;99762.47;;;14.31;46.06
62833;BME280;48891;49.220;6.920;2023-02-28T15:31:28;99771.13;;;14.35;45.96
62833;BME280;48891;49.220;6.920;2023-02-28T15:33:56;99717.75;;;14.09;45.58
62833;BME280;48891;49.220;6.920;2023-02-28T15:36:25;99765.38;;;14.42;45.82
62833;BME280;48891;49.220;6.920;2023-02-28T15:38:51;99766.03;;;14.46;45.76
62833;BME280;48891;49.220;6.920;2023-02-28T15:41:29;99770.25;;;14.50;45.60
62833;BME280;48891;49.220;6.920;2023-02-28T15:44:22;99768.28;;;14.54;45.41
62833;BME280;48891;49.220;6.920;2023-02-28T15:46:59;99771.56;;;14.59;45.51
62833;BME280;48891;49.220;6.920;2023-02-28T15:49:27;99715.97;;;14.26;45.50
62833;BME280;48891;49.220;6.920;2023-02-28T15:51:55;99767.78;;;14.63;45.48
62833;BME280;48891;49.220;6.920;2023-02-28T15:54:26;99732.00;;;14.38;46.11
62833;BME280;48891;49.220;6.920;2023-02-28T15:56:55;99775.44;;;14.68;47.12
62833;BME280;48891;49.220;6.920;2023-02-28T15:59:24;99783.25;;;14.71;48.67
62833;BME280;48891;49.220;6.920;2023-02-28T16:04:34;99782.13;;;14.75;50.73
62833;BME280;48891;49.220;6.920;2023-02-28T16:09:24;99775.88;;;14.76;51.84
62833;BME280;48891;49.220;6.920;2023-02-28T16:11:52;99769.72;;;14.75;52.44
62833;BME280;48891;49.220;6.920;2023-02-28T16:14:23;99777.50;;;14.78;52.95
62833;BME280;48891;49.220;6.920;2023-02-28T16:16:52;99775.88;;;14.76;53.26
62833;BME280;48891;49.220;6.920;2023-02-28T16:19:19;99735.94;;;14.47;53.38
62833;BME280;48891;49.220;6.920;2023-02-28T16:21:45;99781.34;;;14.73;53.63
62833;BME280;48891;49.220;6.920;2023-02-28T16:24:10;99782.31;;;14.72;53.61
62833;BME280;48891;49.220;6.920;2023-02-28T16:26:36;99771.03;;;14.68;53.67
62833;BME280;48891;49.220;6.920;2023-02-28T16:29:03;99785.97;;;14.69;54.10
62833;BME280;48891;49.220;6.920;2023-02-28T16:31:29;99756.19;;;14.48;54.13
62833;BME280;48891;49.220;6.920;2023-02-28T16:33:55;99790.69;;;14.64;54.80
62833;BME280;48891;49.220;6.920;2023-02-28T16:36:22;99790.03;;;14.60;55.15
62833;BME280;48891;49.220;6.920;2023-02-28T16:38:48;99797.13;;;14.60;55.20
62833;BME280;48891;49.220;6.920;2023-02-28T16:41:17;99791.97;;;14.57;55.73
62833;BME280;48891;49.220;6.920;2023-02-28T16:43:44;99801.81;;;14.55;55.86
62833;BME280;48891;49.220;6.920;2023-02-28T16:46:11;99797.63;;;14.51;56.08
62833;BME280;48891;49.220;6.920;2023-02-28T16:48:36;99804.84;;;14.49;56.33
62833;BME280;48891;49.220;6.920;2023-02-28T16:51:02;99812.97;;;14.46;56.79
62833;BME280;48891;49.220;6.920;2023-02-28T16:53:27;99813.13;;;14.42;56.53
62833;BME280;48891;49.220;6.920;2023-02-28T16:55:52;99824.78;;;14.40;56.84
62833;BME280;48891;49.220;6.920;2023-02-28T16:58:17;99815.25;;;14.36;56.69
62833;BME280;48891;49.220;6.920;2023-02-28T17:00:43;99819.88;;;14.32;57.06
62833;BME280;48891;49.220;6.920;2023-02-28T17:03:27;99823.56;;;14.30;57.19
62833;BME280;48891;49.220;6.920;2023-02-28T17:05:53;99831.59;;;14.28;56.78
62833;BME280;48891;49.220;6.920;2023-02-28T17:08:19;99826.66;;;14.22;56.64
62833;BME280;48891;49.220;6.920;2023-02-28T17:10:45;99819.72;;;14.19;56.49
62833;BME280;48891;49.220;6.920;2023-02-28T17:13:10;99828.44;;;14.21;56.42
62833;BME280;48891;49.220;6.920;2023-02-28T17:15:37;99830.31;;;14.19;56.71
62833;BME280;48891;49.220;6.920;2023-02-28T17:18:03;99843.75;;;14.16;56.55
62833;BME280;48891;49.220;6.920;2023-02-28T17:20:28;99842.03;;;14.15;56.63
62833;BME280;48891;49.220;6.920;2023-02-28T17:22:54;99847.34;;;14.15;56.66
62833;BME280;48891;49.220;6.920;2023-02-28T17:25:20;99850.38;;;14.08;56.32
62833;BME280;48891;49.220;6.920;2023-02-28T17:27:46;99845.00;;;14.09;56.22
62833;BME280;48891;49.220;6.920;2023-02-28T17:30:17;99865.38;;;14.09;56.05
62833;BME280;48891;49.220;6.920;2023-02-28T17:32:43;99861.88;;;14.08;56.32
62833;BME280;48891;49.220;6.920;2023-02-28T17:35:09;99836.53;;;13.86;56.17
62833;BME280;48891;49.220;6.920;2023-02-28T17:37:34;99874.44;;;14.04;56.03
62833;BME280;48891;49.220;6.920;2023-02-28T17:40:00;99878.88;;;14.04;55.88
62833;BME280;48891;49.220;6.920;2023-02-28T17:42:25;99881.63;;;14.02;55.89
62833;BME280;48891;49.220;6.920;2023-02-28T17:44:50;99880.94;;;13.99;55.90
62833;BME280;48891;49.220;6.920;2023-02-28T17:47:15;99890.66;;;13.98;55.84
62833;BME280;48891;49.220;6.920;2023-02-28T17:49:41;99886.25;;;13.99;55.87
62833;BME280;48891;49.220;6.920;2023-02-28T17:52:06;99888.19;;;13.95;55.76
62833;BME280;48891;49.220;6.920;2023-02-28T17:54:32;99899.66;;;13.96;55.84
62833;BME280;48891;49.220;6.920;2023-02-28T17:56:57;99897.84;;;13.96;55.66
62833;BME280;48891;49.220;6.920;2023-02-28T17:59:22;99895.19;;;13.96;55.61
62833;BME280;48891;49.220;6.920;2023-02-28T18:01:47;99887.59;;;13.90;55.29
62833;BME280;48891;49.220;6.920;2023-02-28T18:04:13;99893.72;;;13.91;55.40
62833;BME280;48891;49.220;6.920;2023-02-28T18:06:40;99906.06;;;13.92;55.27
62833;BME280;48891;49.220;6.920;2023-02-28T18:09:08;99902.59;;;13.90;54.93
62833;BME280;48891;49.220;6.920;2023-02-28T18:11:33;99902.53;;;13.91;54.95
62833;BME280;48891;49.220;6.920;2023-02-28T18:13:58;99898.41;;;13.85;54.94
62833;BME280;48891;49.220;6.920;2023-02-28T18:16:23;99900.03;;;13.88;54.96
62833;BME280;48891;49.220;6.920;2023-02-28T18:18:49;99896.53;;;13.88;54.73
62833;BME280;48891;49.220;6.920;2023-02-28T18:21:15;99892.28;;;13.85;54.44
62833;BME280;48891;49.220;6.920;2023-02-28T18:23:42;99846.00;;;13.57;54.88
62833;BME280;48891;49.220;6.920;2023-02-28T18:26:07;99891.31;;;13.86;54.88
62833;BME280;48891;49.220;6.920;2023-02-28T18:28:33;99877.63;;;13.78;54.61
62833;BME280;48891;49.220;6.920;2023-02-28T18:31:05;99883.78;;;13.78;54.25
62833;BME280;48891;49.220;6.920;2023-02-28T18:33:31;99886.34;;;13.80;54.47
62833;BME280;48891;49.220;6.920;2023-02-28T18:35:56;99886.56;;;13.75;54.52
62833;BME280;48891;49.220;6.920;2023-02-28T18:38:21;99893.53;;;13.78;54.46
62833;BME280;48891;49.220;6.920;2023-02-28T18:40:55;99891.66;;;13.80;54.25
62833;BME280;48891;49.220;6.920;2023-02-28T18:43:22;99887.59;;;13.73;54.35
62833;BME280;48891;49.220;6.920;2023-02-28T18:45:47;99890.09;;;13.76;54.17
62833;BME280;48891;49.220;6.920;2023-02-28T18:48:12;99896.09;;;13.79;54.22
62833;BME280;48891;49.220;6.920;2023-02-28T18:50:38;99891.72;;;13.78;54.30
62833;BME280;48891;49.220;6.920;2023-02-28T18:53:03;99892.56;;;13.79;54.19
62833;BME280;48891;49.220;6.920;2023-02-28T18:55:30;99890.88;;;13.78;53.92
62833;BME280;48891;49.220;6.920;2023-02-28T18:57:55;99894.44;;;13.77;54.10
62833;BME280;48891;49.220;6.920;2023-02-28T19:00:21;99894.59;;;13.74;53.94
62833;BME280;48891;49.220;6.920;2023-02-28T19:02:48;99867.97;;;13.59;53.66
62833;BME280;48891;49.220;6.920;2023-02-28T19:05:13;99862.81;;;13.56;53.97
62833;BME280;48891;49.220;6.920;2023-02-28T19:07:38;99894.59;;;13.74;53.86
62833;BME280;48891;49.220;6.920;2023-02-28T19:10:04;99901.72;;;13.73;53.82
62833;BME280;48891;49.220;6.920;2023-02-28T19:12:35;99898.44;;;13.68;53.98
62833;BME280;48891;49.220;6.920;2023-02-28T19:15:02;99883.16;;;13.56;53.63
62833;BME280;48891;49.220;6.920;2023-02-28T19:17:27;99913.50;;;13.67;53.91
62833;BME280;48891;49.220;6.920;2023-02-28T19:19:52;99903.72;;;13.68;53.84
62833;BME280;48891;49.220;6.920;2023-02-28T19:22:17;99908.97;;;13.70;53.93
62833;BME280;48891;49.220;6.920;2023-02-28T19:24:43;99908.19;;;13.67;53.68
62833;BME280;48891;49.220;6.920;2023-02-28T19:27:08;99910.00;;;13.67;53.78
62833;BME280;48891;49.220;6.920;2023-02-28T19:29:33;99911.75;;;13.66;53.58
62833;BME280;48891;49.220;6.920;2023-02-28T19:31:59;99902.88;;;13.67;53.53
62833;BME280;48891;49.220;6.920;2023-02-28T19:34:24;99899.63;;;13.62;53.65
62833;BME280;48891;49.220;6.920;2023-02-28T19:36:49;99896.41;;;13.56;53.35
62833;BME280;48891;49.220;6.920;2023-02-28T19:39:15;99904.91;;;13.62;53.50
62833;BME280;48891;49.220;6.920;2023-02-28T19:41:40;99901.34;;;13.63;53.09
62833;BME280;48891;49.220;6.920;2023-02-28T19:44:05;99898.06;;;13.58;53.39
62833;BME280;48891;49.220;6.920;2023-02-28T19:46:31;99891.81;;;13.59;53.42
62833;BME280;48891;49.220;6.920;2023-02-28T19:48:56;99881.16;;;13.43;53.49
62833;BME280;48891;49.220;6.920;2023-02-28T19:51:21;99875.09;;;13.41;53.05
62833;BME280;48891;49.220;6.920;2023-02-28T19:53:47;99901.63;;;13.57;53.15
62833;BME280;48891;49.220;6.920;2023-02-28T19:56:12;99906.03;;;13.58;52.93
62833;BME280;48891;49.220;6.920;2023-02-28T19:58:38;99884.75;;;13.42;53.17
62833;BME280;48891;49.220;6.920;2023-02-28T20:01:12;99905.22;;;13.56;52.95
62833;BME280;48891;49.220;6.920;2023-02-28T20:03:37;99901.09;;;13.51;52.95
62833;BME280;48891;49.220;6.920;2023-02-28T20:06:05;99906.16;;;13.55;52.75
62833;BME280;48891;49.220;6.920;2023-02-28T20:08:31;99909.66;;;13.56;52.81
62833;BME280;48891;49.220;6.920;2023-02-28T20:11:05;99910.50;;;13.56;52.66
62833;BME280;48891;49.220;6.920;2023-02-28T20:13:31;99854.75;;;13.24;52.90
62833;BME280;48891;49.220;6.920;2023-02-28T20:16:04;99905.31;;;13.55;52.87
62833;BME280;48891;49.220;6.920;2023-02-28T20:18:31;99890.56;;;13.49;52.67
62833;BME280;48891;49.220;6.920;2023-02-28T20:20:57;99898.38;;;13.52;52.62
62833;BME280;48891;49.220;6.920;2023-02-28T20:23:23;99888.72;;;13.51;52.55
62833;BME280;48891;49.220;6.920;2023-02-28T20:25:48;99896.66;;;13.51;52.31
62833;BME280;48891;49.220;6.920;2023-02-28T20:28:14;99899.31;;;13.51;52.48
62833;BME280;48891;49.220;6.920;2023-02-28T20:30:40;99894.03;;;13.51;52.45
62833;BME280;48891;49.220;6.920;2023-02-28T20:33:05;99891.44;;;13.50;52.29
62833;BME280;48891;49.220;6.920;2023-02-28T20:35:30;99897.59;;;13.50;52.14
62833;BME280;48891;49.220;6.920;2023-02-28T20:37:55;99900.25;;;13.50;52.08
62833;BME280;48891;49.220;6.920;2023-02-28T20:40:21;99888.94;;;13.46;52.07
62833;BME280;48891;49.220;6.920;2023-02-28T20:42:46;99892.53;;;13.45;51.92
62833;BME280;48891;49.220;6.920;2023-02-28T20:45:11;99894.16;;;13.48;52.00
62833;BME280;48891;49.220;6.920;2023-02-28T20:47:37;99896.81;;;13.48;52.01
62833;BME280;48891;49.220;6.920;2023-02-28T20:50:02;99901.28;;;13.47;52.20
62833;BME280;48891;49.220;6.920;2023-02-28T20:52:27;99881.84;;;13.47;51.93
62833;BME280;48891;49.220;6.920;2023-02-28T20:54:53;99893.22;;;13.49;51.82
62833;BME280;48891;49.220;6.920;2023-02-28T20:57:18;99894.16;;;13.48;51.99
62833;BME280;48891;49.220;6.920;2023-02-28T20:59:43;99893.41;;;13.46;51.87
62833;BME280;48891;49.220;6.920;2023-02-28T21:02:10;99889.78;;;13.47;51.68
62833;BME280;48891;49.220;6.920;2023-02-28T21:04:38;99902.13;;;13.48;51.67
62833;BME280;48891;49.220;6.920;2023-02-28T21:07:03;99885.75;;;13.40;52.05
62833;BME280;48891;49.220;6.920;2023-02-28T21:09:29;99888.09;;;13.46;51.70
62833;BME280;48891;49.220;6.920;2023-02-28T21:11:54;99895.16;;;13.45;51.63
62833;BME280;48891;49.220;6.920;2023-02-28T21:14:19;99893.41;;;13.46;51.64
62833;BME280;48891;49.220;6.920;2023-02-28T21:16:45;99886.38;;;13.45;51.49
62833;BME280;48891;49.220;6.920;2023-02-28T21:19:10;99882.09;;;13.42;51.48
62833;BME280;48891;49.220;6.920;2023-02-28T21:21:38;99888.19;;;13.44;51.50
62833;BME280;48891;49.220;6.920;2023-02-28T21:24:04;99887.31;;;13.44;51.57
62833;BME280;48891;49.220;6.920;2023-02-28T21:26:30;99834.19;;;13.12;51.54
62833;BME280;48891;49.220;6.920;2023-02-28T21:28:58;99882.09;;;13.42;51.45
62833;BME280;48891;49.220;6.920;2023-02-28T21:31:26;99879.47;;;13.42;51.32
62833;BME280;48891;49.220;6.920;2023-02-28T21:33:52;99879.53;;;13.41;51.51
62833;BME280;48891;49.220;6.920;2023-02-28T21:36:20;99874.22;;;13.41;51.35
62833;BME280;48891;49.220;6.920;2023-02-28T21:38:48;99883.97;;;13.40;51.35
62833;BME280;48891;49.220;6.920;2023-02-28T21:41:19;99884.75;;;13.42;51.23
62833;BME280;48891;49.220;6.920;2023-02-28T21:43:45;99874.22;;;13.41;51.27
62833;BME280;48891;49.220;6.920;2023-02-28T21:46:15;99851.22;;;13.24;51.16
62833;BME280;48891;49.220;6.920;2023-02-28T21:48:42;99869.94;;;13.38;51.08
62833;BME280;48891;49.220;6.920;2023-02-28T21:51:11;99876.88;;;13.41;51.21
62833;BME280;48891;49.220;6.920;2023-02-28T21:53:38;99876.88;;;13.41;51.17
62833;BME280;48891;49.220;6.920;2023-02-28T21:56:06;99867.22;;;13.40;51.03
62833;BME280;48891;49.220;6.920;2023-02-28T21:58:32;99875.22;;;13.38;51.20
62833;BME280;48891;49.220;6.920;2023-02-28T22:01:10;99880.44;;;13.40;51.06
62833;BME280;48891;49.220;6.920;2023-02-28T22:03:36;99868.16;;;13.39;50.93
62833;BME280;48891;49.220;6.920;2023-02-28T22:06:15;99874.38;;;13.38;50.98
62833;BME280;48891;49.220;6.920;2023-02-28T22:08:43;99869.94;;;13.38;50.92
62833;BME280;48891;49.220;6.920;2023-02-28T22:11:09;99860.22;;;13.39;50.80
62833;BME280;48891;49.220;6.920;2023-02-28T22:13:36;99807.44;;;12.99;50.92
62833;BME280;48891;49.220;6.920;2023-02-28T22:16:08;99863.78;;;13.38;51.00
62833;BME280;48891;49.220;6.920;2023-02-28T22:18:34;99859.72;;;13.30;50.88
62833;BME280;48891;49.220;6.920;2023-02-28T22:20:59;99868.31;;;13.36;50.75
62833;BME280;48891;49.220;6.920;2023-02-28T22:23:25;99876.19;;;13.37;50.75
62833;BME280;48891;49.220;6.920;2023-02-28T22:25:51;99869.22;;;13.35;50.79
62833;BME280;48891;49.220;6.920;2023-02-28T22:28:16;99873.53;;;13.37;50.63
62833;BME280;48891;49.220;6.920;2023-02-28T22:30:42;99877.09;;;13.36;50.71
62833;BME280;48891;49.220;6.920;2023-02-28T22:33:07;99876.25;;;13.36;50.65
62833;BME280;48891;49.220;6.920;2023-02-28T22:35:32;99881.47;;;13.37;50.77
62833;BME280;48891;49.220;6.920;2023-02-28T22:37:57;99866.59;;;13.35;50.55
62833;BME280;48891;49.220;6.920;2023-02-28T22:40:23;99866.75;;;13.32;50.52
62833;BME280;48891;49.220;6.920;2023-02-28T22:42:48;99871.19;;;13.31;50.57
62833;BME280;48891;49.220;6.920;2023-02-28T22:45:13;99843.53;;;13.19;50.62
62833;BME280;48891;49.220;6.920;2023-02-28T22:47:39;99867.53;;;13.34;50.71
62833;BME280;48891;49.220;6.920;2023-02-28T22:50:04;99867.47;;;13.35;50.53
62833;BME280;48891;49.220;6.920;2023-02-28T22:52:30;99869.31;;;13.33;50.53
62833;BME280;48891;49.220;6.920;2023-02-28T22:54:55;99864.88;;;13.34;50.62
62833;BME280;48891;49.220;6.920;2023-02-28T22:57:20;99866.66;;;13.33;50.47
62833;BME280;48891;49.220;6.920;2023-02-28T22:59:45;99872.84;;;13.34;50.68
62833;BME280;48891;49.220;6.920;2023-02-28T23:02:11;99863.09;;;13.34;50.55
62833;BME280;48891;49.220;6.920;2023-02-28T23:04:36;99863.16;;;13.33;50.41
62833;BME280;48891;49.220;6.920;2023-02-28T23:07:01;99863.28;;;13.29;50.45
62833;BME280;48891;49.220;6.920;2023-02-28T23:09:26;99860.50;;;13.33;50.59
62833;BME280;48891;49.220;6.920;2023-02-28T23:11:52;99864.97;;;13.32;50.48
62833;BME280;48891;49.220;6.920;2023-02-28T23:14:18;99858.81;;;13.32;50.42
62833;BME280;48891;49.220;6.920;2023-02-28T23:16:46;99864.13;;;13.32;50.17
62833;BME280;48891;49.220;6.920;2023-02-28T23:19:25;99864.97;;;13.32;50.36
62833;BME280;48891;49.220;6.920;2023-02-28T23:21:51;99865.88;;;13.31;50.43
62833;BME280;48891;49.220;6.920;2023-02-28T23:24:19;99866.75;;;13.32;50.59
62833;BME280;48891;49.220;6.920;2023-02-28T23:26:47;99867.66;;;13.30;50.34
62833;BME280;48891;49.220;6.920;2023-02-28T23:29:14;99858.22;;;13.25;50.17
62833;BME280;48891;49.220;6.920;2023-02-28T23:31:40;99872.06;;;13.32;50.21
62833;BME280;48891;49.220;6.920;2023-02-28T23:34:06;99874.72;;;13.32;50.26
62833;BME280;48891;49.220;6.920;2023-02-28T23:36:31;99843.88;;;13.11;50.27
62833;BME280;48891;49.220;6.920;2023-02-28T23:38:57;99843.88;;;13.11;50.19
62833;BME280;48891;49.220;6.920;2023-02-28T23:41:23;99869.53;;;13.28;50.13
62833;BME280;48891;49.220;6.920;2023-02-28T23:43:50;99864.53;;;13.22;50.18
62833;BME280;48891;49.220;6.920;2023-02-28T23:46:16;99875.66;;;13.29;50.15
62833;BME280;48891;49.220;6.920;2023-02-28T23:48:41;99878.31;;;13.29;50.12
62833;BME280;48891;49.220;6.920;2023-02-28T23:51:18;99871.31;;;13.28;50.09